createdAt,value
2023-02-04T00:12:43.550Z,18.46
2023-02-04T00:27:45.585Z,19.22
2023-02-04T00:42:47.557Z,20.503
2023-02-04T00:57:49.469Z,20.587
2023-02-04T01:12:51.395Z,20.865
2023-02-04T01:27:53.483Z,20.763
2023-02-04T01:42:55.398Z,20.064
2023-02-04T01:57:57.356Z,20.014
2023-02-04T02:12:59.266Z,18.875
2023-02-04T02:28:01.322Z,19.331
2023-02-04T02:43:03.229Z,20.645
2023-02-04T02:58:05.107Z,23.252
2023-02-04T03:13:07.172Z,21.001
2023-02-04T03:28:09.157Z,20.54
2023-02-04T03:43:11.102Z,20.468
2023-02-04T03:58:12.972Z,20.54
2023-02-04T04:13:14.910Z,20.827
2023-02-04T04:28:16.892Z,20.595
2023-02-04T04:43:18.837Z,20.558
2023-02-04T04:58:20.913Z,20.494
2023-02-04T05:13:22.952Z,20.409
2023-02-04T05:28:24.967Z,20.509
2023-02-04T05:43:26.899Z,20.676
2023-02-04T05:58:28.852Z,21.158
2023-02-04T06:13:30.874Z,20.539
2023-02-04T06:28:32.861Z,20.684
2023-02-04T06:43:34.845Z,20.437
2023-02-04T06:58:36.819Z,20.655
2023-02-04T07:13:38.823Z,21.269
2023-02-04T07:28:40.784Z,21.57
2023-02-04T07:43:42.773Z,21.658
2023-02-04T07:58:44.656Z,21.83
2023-02-04T08:13:46.632Z,21.985
2023-02-04T08:28:48.655Z,22.067
2023-02-04T08:43:50.622Z,22.49
2023-02-04T08:58:52.676Z,22.579
2023-02-04T09:13:54.689Z,22.263
2023-02-04T09:28:56.668Z,22.715
2023-02-04T09:43:58.646Z,22.868
2023-02-04T09:59:00.560Z,23.18
2023-02-04T10:14:02.573Z,22.383
2023-02-04T10:29:04.609Z,22.778
2023-02-04T10:44:06.550Z,23.123
2023-02-04T10:59:08.501Z,23.215
2023-02-04T11:14:10.527Z,23.323
2023-02-04T11:29:12.516Z,23.396
2023-02-04T11:44:14.537Z,23.711
2023-02-04T11:59:16.477Z,23.9
2023-02-04T12:14:18.501Z,24.139
2023-02-04T12:29:20.616Z,24.142
2023-02-04T12:44:22.580Z,24.188
2023-02-04T12:59:24.514Z,24.367
2023-02-04T13:14:26.526Z,24.276
2023-02-04T13:29:28.534Z,24.443
2023-02-04T13:44:30.481Z,24.435
2023-02-04T13:59:32.512Z,24.499
2023-02-04T14:14:34.521Z,24.522
2023-02-04T14:29:36.692Z,24.511
2023-02-04T14:44:38.652Z,24.575
2023-02-04T14:59:40.657Z,24.654
2023-02-04T15:14:42.763Z,24.628
2023-02-04T15:29:44.745Z,24.721
2023-02-04T15:44:46.696Z,24.605
2023-02-04T15:59:48.771Z,25.536
2023-02-04T16:14:50.843Z,24.533
2023-02-04T16:29:52.762Z,23.748
2023-02-04T16:44:59.863Z,23.496
2023-02-04T17:00:01.912Z,23.218
2023-02-04T17:15:03.871Z,22.212
2023-02-04T17:30:05.899Z,22.044
2023-02-04T17:45:07.840Z,21.852
2023-02-04T18:00:09.777Z,21.832
2023-02-04T18:15:11.979Z,21.993
2023-02-04T18:30:14.247Z,21.468
2023-02-04T18:45:16.367Z,19.892
2023-02-04T19:00:18.329Z,20.077
2023-02-04T19:15:20.484Z,22.151
2023-02-04T19:30:22.490Z,20.95
2023-02-04T19:45:24.441Z,22.626
2023-02-04T20:00:26.377Z,22.01
2023-02-04T20:15:28.333Z,21.51
2023-02-04T20:30:30.394Z,21.628
2023-02-04T20:45:32.782Z,21.697
2023-02-04T21:00:34.887Z,21.272
2023-02-04T21:15:36.963Z,21.033
2023-02-04T21:30:39.084Z,21.234
2023-02-04T21:45:40.986Z,21.329
2023-02-04T22:00:42.941Z,21.368
2023-02-04T22:15:44.923Z,21.015
2023-02-04T22:30:46.923Z,20.982
2023-02-04T22:45:48.930Z,21.077
2023-02-04T23:00:50.890Z,20.609
2023-02-04T23:15:53.055Z,21.114
2023-02-04T23:30:54.978Z,20.757
2023-02-04T23:45:57.351Z,20.575
